createdAt,value
2023-04-15T00:01:20.339Z,5.14
2023-04-15T00:03:50.862Z,5.14
2023-04-15T00:06:17.727Z,5.07
2023-04-15T00:08:44.528Z,5.11
2023-04-15T00:11:11.432Z,5.11
2023-04-15T00:13:38.821Z,5.08
2023-04-15T00:16:07.744Z,5.19
2023-04-15T00:18:35.929Z,5.07
2023-04-15T00:21:03.206Z,5.07
2023-04-15T00:23:30.126Z,5.00
2023-04-15T00:25:57.518Z,5.10
2023-04-15T00:28:24.431Z,5.08
2023-04-15T00:30:51.622Z,5.07
2023-04-15T00:33:18.543Z,4.97
2023-04-15T00:35:45.400Z,5.05
2023-04-15T00:38:12.684Z,5.10
2023-04-15T00:40:40.115Z,5.12
2023-04-15T00:43:07.326Z,5.11
2023-04-15T00:45:34.501Z,5.05
2023-04-15T00:48:01.707Z,5.07
2023-04-15T00:50:28.577Z,5.06
2023-04-15T00:52:55.379Z,5.06
2023-04-15T00:55:22.259Z,5.15
2023-04-15T00:57:49.037Z,5.15
2023-04-15T01:00:16.820Z,5.10
2023-04-15T01:02:43.879Z,5.10
2023-04-15T01:05:10.920Z,5.01
2023-04-15T01:07:38.129Z,4.95
2023-04-15T01:10:05.609Z,4.90
2023-04-15T01:12:34.621Z,4.97
2023-04-15T01:15:02.685Z,5.01
2023-04-15T01:17:30.468Z,4.99
2023-04-15T01:20:00.337Z,4.96
2023-04-15T01:22:28.059Z,5.00
2023-04-15T01:25:02.632Z,4.93
2023-04-15T01:27:29.675Z,4.96
2023-04-15T01:29:56.402Z,5.03
2023-04-15T01:32:24.125Z,5.09
2023-04-15T01:34:51.156Z,5.01
2023-04-15T01:37:18.073Z,4.95
2023-04-15T01:39:44.947Z,4.93
2023-04-15T01:42:11.960Z,5.00
2023-04-15T01:44:38.776Z,4.96
2023-04-15T01:47:05.963Z,4.91
2023-04-15T01:49:33.029Z,4.97
2023-04-15T01:51:59.853Z,4.99
2023-04-15T01:54:27.845Z,4.99
2023-04-15T01:56:54.638Z,5.00
2023-04-15T01:59:21.924Z,5.06
2023-04-15T02:01:48.678Z,5.03
2023-04-15T02:04:17.562Z,5.00
2023-04-15T02:06:44.916Z,4.96
2023-04-15T02:09:11.773Z,5.05
2023-04-15T02:11:39.464Z,5.04
2023-04-15T02:14:06.625Z,5.06
2023-04-15T02:16:34.166Z,5.13
2023-04-15T02:19:01.625Z,5.13
2023-04-15T02:21:28.720Z,5.14
2023-04-15T02:23:56.233Z,5.16
2023-04-15T02:26:23.192Z,5.13
2023-04-15T02:28:51.597Z,5.05
2023-04-15T02:31:18.786Z,4.98
2023-04-15T02:33:45.932Z,4.93
2023-04-15T02:36:12.723Z,4.86
2023-04-15T02:38:42.621Z,4.94
2023-04-15T02:41:10.676Z,4.86
2023-04-15T02:43:38.234Z,4.89
2023-04-15T02:46:05.126Z,4.87
2023-04-15T02:48:32.131Z,4.88
2023-04-15T02:51:12.808Z,4.88
2023-04-15T02:53:39.600Z,4.80
2023-04-15T02:56:06.903Z,4.82
2023-04-15T02:58:35.055Z,4.87
2023-04-15T03:01:02.083Z,4.90
2023-04-15T03:03:29.017Z,4.93
2023-04-15T03:05:56.038Z,4.97
2023-04-15T03:08:22.845Z,4.95
2023-04-15T03:10:49.805Z,4.93
2023-04-15T03:13:16.744Z,4.87
2023-04-15T03:15:43.480Z,4.92
2023-04-15T03:18:10.295Z,4.90
2023-04-15T03:20:37.528Z,4.91
2023-04-15T03:23:04.488Z,4.98
2023-04-15T03:25:31.357Z,5.02
2023-04-15T03:27:58.711Z,4.99
2023-04-15T03:30:25.482Z,4.96
2023-04-15T03:32:52.273Z,4.92
2023-04-15T03:35:19.024Z,4.94
2023-04-15T03:37:45.907Z,4.92
2023-04-15T03:40:13.194Z,4.89
2023-04-15T03:42:39.943Z,4.84
2023-04-15T03:45:07.941Z,4.77
2023-04-15T03:47:34.901Z,4.78
2023-04-15T03:50:01.920Z,4.79
2023-04-15T03:52:28.924Z,4.85
2023-04-15T03:54:56.267Z,4.83
2023-04-15T03:57:23.041Z,4.79
2023-04-15T03:59:49.853Z,4.84
2023-04-15T04:02:16.673Z,4.85
2023-04-15T04:04:44.068Z,4.85
2023-04-15T04:07:18.612Z,4.79
2023-04-15T04:09:47.149Z,4.77
2023-04-15T04:12:14.457Z,4.70
2023-04-15T04:14:41.379Z,4.69
2023-04-15T04:17:08.268Z,4.67
2023-04-15T04:19:35.534Z,4.72
2023-04-15T04:22:02.435Z,4.76
2023-04-15T04:24:29.211Z,4.75
2023-04-15T04:26:57.491Z,4.71
2023-04-15T04:29:24.453Z,4.75
2023-04-15T04:31:51.286Z,4.72
2023-04-15T04:34:18.417Z,4.73
2023-04-15T04:36:45.147Z,4.70
2023-04-15T04:39:11.887Z,4.72
2023-04-15T04:41:38.702Z,4.66
2023-04-15T04:44:05.527Z,4.61
2023-04-15T04:46:32.264Z,4.56
2023-04-15T04:48:59.104Z,4.61
2023-04-15T04:51:26.565Z,4.58
2023-04-15T04:53:54.135Z,4.68
2023-04-15T04:56:21.274Z,4.70
2023-04-15T04:58:48.220Z,4.77
2023-04-15T05:01:15.259Z,4.75
2023-04-15T05:03:42.193Z,4.93
2023-04-15T05:06:09.155Z,4.90
2023-04-15T05:08:37.336Z,4.98
2023-04-15T05:11:05.415Z,5.05
2023-04-15T05:13:32.217Z,5.01
2023-04-15T05:15:59.103Z,5.03
2023-04-15T05:18:26.139Z,5.10
2023-04-15T05:20:53.038Z,5.16
2023-04-15T05:23:19.816Z,5.23
2023-04-15T05:25:46.568Z,5.25
2023-04-15T05:28:13.293Z,5.31
2023-04-15T05:30:40.733Z,5.50
2023-04-15T05:33:07.545Z,5.57
2023-04-15T05:35:34.305Z,5.58
2023-04-15T05:38:01.394Z,5.69
2023-04-15T05:40:28.462Z,5.79
2023-04-15T05:42:55.727Z,5.98
2023-04-15T05:45:22.836Z,5.95
2023-04-15T05:47:54.503Z,6.00
2023-04-15T05:50:21.587Z,6.02
2023-04-15T05:52:48.435Z,6.11
2023-04-15T05:55:15.228Z,6.24
2023-04-15T05:57:42.003Z,6.15
2023-04-15T06:00:09.714Z,6.18
2023-04-15T06:02:36.844Z,6.16
2023-04-15T06:05:04.266Z,6.09
2023-04-15T06:07:31.213Z,6.10
2023-04-15T06:09:57.988Z,6.29
2023-04-15T06:12:24.745Z,6.28
2023-04-15T06:14:51.551Z,6.40
2023-04-15T06:17:19.568Z,6.48
2023-04-15T06:19:47.385Z,6.48
2023-04-15T06:22:14.247Z,6.62
2023-04-15T06:24:41.373Z,6.71
2023-04-15T06:27:08.302Z,6.80
2023-04-15T06:29:35.084Z,6.91
2023-04-15T06:32:01.864Z,7.05
2023-04-15T06:34:28.700Z,7.24
2023-04-15T06:36:55.649Z,7.17
2023-04-15T06:39:22.403Z,7.21
2023-04-15T06:41:49.281Z,7.27
2023-04-15T06:44:16.488Z,7.25
2023-04-15T06:46:43.204Z,7.60
2023-04-15T06:49:09.982Z,7.79
2023-04-15T06:51:36.956Z,8.09
2023-04-15T06:54:06.255Z,8.02
2023-04-15T06:56:33.780Z,7.98
2023-04-15T06:59:01.185Z,8.10
2023-04-15T07:01:28.635Z,8.20
2023-04-15T07:03:55.541Z,7.93
2023-04-15T07:06:22.487Z,8.48
2023-04-15T07:08:49.237Z,8.48
2023-04-15T07:11:16.056Z,8.42
2023-04-15T07:13:42.751Z,8.42
2023-04-15T07:16:09.699Z,8.86
2023-04-15T07:18:36.492Z,8.95
2023-04-15T07:21:03.436Z,9.21
2023-04-15T07:23:30.356Z,9.07
2023-04-15T07:25:57.694Z,9.14
2023-04-15T07:28:24.542Z,9.50
2023-04-15T07:30:54.435Z,9.27
2023-04-15T07:33:21.785Z,9.47
2023-04-15T07:35:48.544Z,9.82
2023-04-15T07:38:15.267Z,9.96
2023-04-15T07:40:42.660Z,9.74
2023-04-15T07:43:10.255Z,9.59
2023-04-15T07:45:37.051Z,9.73
2023-04-15T07:48:04.121Z,9.47
2023-04-15T07:50:31.490Z,9.98
2023-04-15T07:52:58.359Z,10.23
2023-04-15T07:55:26.165Z,10.28
2023-04-15T07:57:54.017Z,10.32
2023-04-15T08:00:21.015Z,9.87
2023-04-15T08:02:48.639Z,10.50
2023-04-15T08:05:16.269Z,10.73
2023-04-15T08:07:43.125Z,10.43
2023-04-15T08:10:10.400Z,10.64
2023-04-15T08:12:37.440Z,10.22
2023-04-15T08:15:04.648Z,10.17
2023-04-15T08:17:31.452Z,10.46
2023-04-15T08:19:58.241Z,10.84
2023-04-15T08:22:25.217Z,10.63
2023-04-15T08:24:52.279Z,11.21
2023-04-15T08:27:19.184Z,10.61
2023-04-15T08:29:46.021Z,10.04
2023-04-15T08:32:13.121Z,10.69
2023-04-15T08:34:40.030Z,11.00
2023-04-15T08:37:07.292Z,11.25
2023-04-15T08:39:34.060Z,10.95
2023-04-15T08:42:07.527Z,11.25
2023-04-15T08:44:35.766Z,11.00
2023-04-15T08:47:03.524Z,10.69
2023-04-15T08:49:30.974Z,10.20
2023-04-15T08:52:01.749Z,10.85
2023-04-15T08:54:28.837Z,11.00
2023-04-15T08:56:59.212Z,11.18
2023-04-15T08:59:26.903Z,11.23
2023-04-15T09:01:55.582Z,11.71
2023-04-15T09:04:22.516Z,11.38
2023-04-15T09:06:49.273Z,11.48
2023-04-15T09:09:16.090Z,11.18
2023-04-15T09:11:43.426Z,11.25
2023-04-15T09:14:10.181Z,10.92
2023-04-15T09:16:58.975Z,10.80
2023-04-15T09:19:25.980Z,10.78
2023-04-15T09:21:58.015Z,10.90
2023-04-15T09:24:27.367Z,10.80
2023-04-15T09:26:56.241Z,10.46
2023-04-15T09:29:26.928Z,10.26
2023-04-15T09:31:53.966Z,10.46
2023-04-15T09:34:21.869Z,10.46
2023-04-15T09:36:50.949Z,10.25
2023-04-15T09:39:18.409Z,9.87
2023-04-15T09:41:45.514Z,9.68
2023-04-15T09:44:41.428Z,9.29
2023-04-15T09:47:08.315Z,9.12
2023-04-15T09:49:35.231Z,9.53
2023-04-15T09:52:06.142Z,9.04
2023-04-15T09:54:37.659Z,9.41
2023-04-15T09:57:10.535Z,9.26
2023-04-15T09:59:37.478Z,9.73
2023-04-15T10:02:06.797Z,9.48
2023-04-15T10:04:39.751Z,9.92
2023-04-15T10:07:08.673Z,9.74
2023-04-15T10:09:39.668Z,9.76
2023-04-15T10:12:06.615Z,10.60
2023-04-15T10:14:36.057Z,10.36
2023-04-15T10:17:05.805Z,10.06
2023-04-15T10:19:34.593Z,9.91
2023-04-15T10:22:01.821Z,9.63
2023-04-15T10:24:31.460Z,10.13
2023-04-15T10:26:59.747Z,10.13
2023-04-15T10:29:29.680Z,10.12
2023-04-15T10:31:57.251Z,10.51
2023-04-15T10:34:25.053Z,9.68
2023-04-15T10:36:52.368Z,9.93
2023-04-15T10:39:37.843Z,10.13
2023-04-15T10:42:11.135Z,9.81
2023-04-15T10:44:39.408Z,9.64
2023-04-15T10:47:15.812Z,9.81
2023-04-15T10:49:51.081Z,10.02
2023-04-15T10:52:23.134Z,9.94
2023-04-15T10:54:50.119Z,9.79
2023-04-15T10:57:23.664Z,9.74
2023-04-15T11:00:05.036Z,9.53
2023-04-15T11:03:00.277Z,9.85
2023-04-15T11:05:42.347Z,9.99
2023-04-15T11:08:13.881Z,9.81
2023-04-15T11:10:41.455Z,9.71
2023-04-15T11:13:11.190Z,9.64
2023-04-15T11:15:42.940Z,9.15
2023-04-15T11:18:15.338Z,9.22
2023-04-15T11:20:48.327Z,9.10
2023-04-15T11:23:16.225Z,8.95
2023-04-15T11:25:44.226Z,8.72
2023-04-15T11:28:12.561Z,8.73
2023-04-15T11:30:40.414Z,8.69
2023-04-15T11:33:09.427Z,8.48
2023-04-15T11:35:36.425Z,8.61
2023-04-15T11:38:04.464Z,8.70
2023-04-15T11:40:33.700Z,8.75
2023-04-15T11:43:10.794Z,8.97
2023-04-15T11:45:38.900Z,8.82
2023-04-15T11:48:12.549Z,8.79
2023-04-15T11:50:41.459Z,8.63
2023-04-15T11:53:10.350Z,8.80
2023-04-15T11:55:51.312Z,9.00
2023-04-15T11:58:20.707Z,9.15
2023-04-15T12:00:54.344Z,9.50
2023-04-15T12:03:32.160Z,8.90
2023-04-15T12:06:12.585Z,8.73
2023-04-15T12:09:06.782Z,8.88
2023-04-15T12:11:34.943Z,9.01
2023-04-15T12:14:09.885Z,9.01
2023-04-15T12:16:48.170Z,9.34
2023-04-15T12:19:45.580Z,9.12
2023-04-15T12:22:15.567Z,9.07
2023-04-15T12:24:48.921Z,8.96
2023-04-15T12:27:17.250Z,8.95
2023-04-15T12:29:44.491Z,8.89
2023-04-15T12:32:16.076Z,9.05
2023-04-15T12:34:45.139Z,8.83
2023-04-15T12:37:16.219Z,8.97
2023-04-15T12:39:44.834Z,8.96
2023-04-15T12:42:12.181Z,8.92
2023-04-15T12:44:39.947Z,8.52
2023-04-15T12:47:08.285Z,8.37
2023-04-15T12:49:35.365Z,8.55
2023-04-15T12:52:03.620Z,8.54
2023-04-15T12:54:31.758Z,8.34
2023-04-15T12:56:59.708Z,8.54
2023-04-15T12:59:26.981Z,8.36
2023-04-15T13:01:54.675Z,8.48
2023-04-15T13:04:22.243Z,8.44
2023-04-15T13:06:49.447Z,8.43
2023-04-15T13:09:16.281Z,8.53
2023-04-15T13:11:43.377Z,8.44
2023-04-15T13:14:13.365Z,8.33
2023-04-15T13:16:41.066Z,8.52
2023-04-15T13:19:07.973Z,8.82
2023-04-15T13:21:36.224Z,9.21
2023-04-15T13:24:04.261Z,9.34
2023-04-15T13:26:32.145Z,10.15
2023-04-15T13:29:00.135Z,10.15
2023-04-15T13:31:27.598Z,10.36
2023-04-15T13:33:54.917Z,10.05
2023-04-15T13:36:21.714Z,9.30
2023-04-15T13:38:50.996Z,10.08
2023-04-15T13:41:18.244Z,9.96
2023-04-15T13:43:44.992Z,9.56
2023-04-15T13:46:11.889Z,9.39
2023-04-15T13:48:38.777Z,9.17
2023-04-15T13:51:05.805Z,8.90
2023-04-15T13:53:38.890Z,8.95
2023-04-15T13:56:10.127Z,8.86
2023-04-15T13:58:38.112Z,8.97
2023-04-15T14:01:08.937Z,8.77
2023-04-15T14:03:37.017Z,8.91
2023-04-15T14:06:05.526Z,8.86
2023-04-15T14:08:32.440Z,8.74
2023-04-15T14:10:59.413Z,8.90
2023-04-15T14:13:26.415Z,8.93
2023-04-15T14:15:53.337Z,8.80
2023-04-15T14:18:20.521Z,8.76
2023-04-15T14:20:47.582Z,8.93
2023-04-15T14:23:14.348Z,8.74
2023-04-15T14:25:41.416Z,8.75
2023-04-15T14:28:08.522Z,8.93
2023-04-15T14:30:36.221Z,8.94
2023-04-15T14:33:04.157Z,8.84
2023-04-15T14:35:31.242Z,8.87
2023-04-15T14:37:58.108Z,8.69
2023-04-15T14:40:24.850Z,8.78
2023-04-15T14:42:51.695Z,8.70
2023-04-15T14:45:18.634Z,8.65
2023-04-15T14:47:45.635Z,8.45
2023-04-15T14:50:13.007Z,8.45
2023-04-15T14:52:40.027Z,8.39
2023-04-15T14:55:08.904Z,8.28
2023-04-15T14:57:36.272Z,8.30
2023-04-15T15:00:04.614Z,8.34
2023-04-15T15:02:39.391Z,8.42
2023-04-15T15:05:08.016Z,8.23
2023-04-15T15:07:37.407Z,8.21
2023-04-15T15:10:04.854Z,8.10
2023-04-15T15:12:32.874Z,8.17
2023-04-15T15:15:00.468Z,8.38
2023-04-15T15:17:28.763Z,8.26
2023-04-15T15:19:55.795Z,8.24
2023-04-15T15:22:22.538Z,8.22
2023-04-15T15:24:49.324Z,8.29
2023-04-15T15:27:16.404Z,8.17
2023-04-15T15:29:43.501Z,8.24
2023-04-15T15:32:10.600Z,8.21
2023-04-15T15:34:37.717Z,8.08
2023-04-15T15:37:04.473Z,8.07
2023-04-15T15:39:32.716Z,8.06
2023-04-15T15:41:59.455Z,7.96
2023-04-15T15:44:26.554Z,8.00
2023-04-15T15:46:53.993Z,7.95
2023-04-15T15:49:21.125Z,8.00
2023-04-15T15:51:48.034Z,7.91
2023-04-15T15:54:14.837Z,7.97
2023-04-15T15:56:42.374Z,7.85
2023-04-15T15:59:09.143Z,7.88
2023-04-15T16:01:36.208Z,7.92
2023-04-15T16:04:03.062Z,7.94
2023-04-15T16:06:29.974Z,7.88
2023-04-15T16:08:56.720Z,7.89
2023-04-15T16:11:23.771Z,7.99
2023-04-15T16:13:51.262Z,7.88
2023-04-15T16:16:18.062Z,7.99
2023-04-15T16:18:44.892Z,7.91
2023-04-15T16:21:11.716Z,7.96
2023-04-15T16:23:38.574Z,8.01
2023-04-15T16:26:05.504Z,7.92
2023-04-15T16:28:32.413Z,7.80
2023-04-15T16:30:59.619Z,7.78
2023-04-15T16:33:26.807Z,7.71
2023-04-15T16:35:53.635Z,7.79
2023-04-15T16:38:20.725Z,7.75
2023-04-15T16:40:47.684Z,7.72
2023-04-15T16:43:14.396Z,7.60
2023-04-15T16:45:41.251Z,7.57
2023-04-15T16:48:08.005Z,7.57
2023-04-15T16:50:37.975Z,7.58
2023-04-15T16:53:04.765Z,7.57
2023-04-15T16:55:31.944Z,7.60
2023-04-15T16:58:02.246Z,7.60
2023-04-15T17:00:32.015Z,7.52
2023-04-15T17:03:00.976Z,7.62
2023-04-15T17:05:28.344Z,7.66
2023-04-15T17:07:55.753Z,7.58
2023-04-15T17:10:23.134Z,7.62
2023-04-15T17:12:52.373Z,7.63
2023-04-15T17:15:20.281Z,7.54
2023-04-15T17:17:47.126Z,7.54
2023-04-15T17:20:14.035Z,7.51
2023-04-15T17:22:40.916Z,7.51
2023-04-15T17:25:08.644Z,7.53
2023-04-15T17:27:36.247Z,7.47
2023-04-15T17:30:03.284Z,7.44
2023-04-15T17:32:34.634Z,7.43
2023-04-15T17:35:03.837Z,7.46
2023-04-15T17:37:30.727Z,7.41
2023-04-15T17:39:57.464Z,7.42
2023-04-15T17:42:24.270Z,7.41
2023-04-15T17:44:51.004Z,7.38
2023-04-15T17:47:17.874Z,7.41
2023-04-15T17:49:45.874Z,7.43
2023-04-15T17:52:12.843Z,7.37
2023-04-15T17:54:39.629Z,7.37
2023-04-15T17:57:06.564Z,7.35
2023-04-15T17:59:34.373Z,7.36
2023-04-15T18:02:01.293Z,7.36
2023-04-15T18:04:28.751Z,7.35
2023-04-15T18:06:55.543Z,7.36
2023-04-15T18:09:22.406Z,7.33
2023-04-15T18:11:49.378Z,7.32
2023-04-15T18:14:26.985Z,7.29
2023-04-15T18:17:01.332Z,7.31
2023-04-15T18:19:32.278Z,7.34
2023-04-15T18:22:00.741Z,7.31
2023-04-15T18:24:28.264Z,7.29
2023-04-15T18:26:55.048Z,7.30
2023-04-15T18:29:22.173Z,7.28
2023-04-15T18:31:49.097Z,7.30
2023-04-15T18:34:16.104Z,7.32
2023-04-15T18:36:43.084Z,7.26
2023-04-15T18:39:10.685Z,7.30
2023-04-15T18:41:37.560Z,7.29
2023-04-15T18:44:04.401Z,7.28
2023-04-15T18:46:31.460Z,7.27
2023-04-15T18:48:58.346Z,7.28
2023-04-15T18:51:25.326Z,7.22
2023-04-15T18:53:52.098Z,7.29
2023-04-15T18:56:18.961Z,7.23
2023-04-15T18:59:08.883Z,7.23
2023-04-15T19:01:32.739Z,7.21
2023-04-15T19:04:02.652Z,7.22
2023-04-15T19:06:29.606Z,7.19
2023-04-15T19:08:58.778Z,7.22
2023-04-15T19:11:26.528Z,7.22
2023-04-15T19:13:53.417Z,7.26
2023-04-15T19:16:20.507Z,7.27
2023-04-15T19:18:47.374Z,7.26
2023-04-15T19:21:14.328Z,7.26
2023-04-15T19:23:43.837Z,7.25
2023-04-15T19:26:12.027Z,7.24
2023-04-15T19:28:38.907Z,7.22
2023-04-15T19:31:05.967Z,7.20
2023-04-15T19:33:33.502Z,7.22
2023-04-15T19:36:05.569Z,7.22
2023-04-15T19:38:35.159Z,7.22
2023-04-15T19:41:02.170Z,7.25
2023-04-15T19:43:29.044Z,7.25
2023-04-15T19:45:56.297Z,7.32
2023-04-15T19:48:24.818Z,7.29
2023-04-15T19:50:51.969Z,7.26
2023-04-15T19:53:18.747Z,7.22
2023-04-15T19:55:46.229Z,7.26
2023-04-15T19:58:13.024Z,7.23
2023-04-15T20:00:39.799Z,7.26
2023-04-15T20:03:06.830Z,7.28
2023-04-15T20:05:33.663Z,7.27
2023-04-15T20:08:01.843Z,7.27
2023-04-15T20:10:28.663Z,7.27
2023-04-15T20:12:55.655Z,7.28
2023-04-15T20:15:24.255Z,7.28
2023-04-15T20:17:51.646Z,7.31
2023-04-15T20:20:18.839Z,7.28
2023-04-15T20:22:45.617Z,7.30
2023-04-15T20:25:12.653Z,7.26
2023-04-15T20:27:39.904Z,7.25
2023-04-15T20:30:07.770Z,7.24
2023-04-15T20:32:36.240Z,7.30
2023-04-15T20:35:05.302Z,7.29
2023-04-15T20:37:33.740Z,7.28
2023-04-15T20:40:01.127Z,7.30
2023-04-15T20:42:28.307Z,7.26
2023-04-15T20:44:55.046Z,7.29
2023-04-15T20:47:21.932Z,7.33
2023-04-15T20:49:48.767Z,7.31
2023-04-15T20:52:15.493Z,7.31
2023-04-15T20:54:42.269Z,7.34
2023-04-15T20:57:09.303Z,7.41
2023-04-15T20:59:36.255Z,7.38
2023-04-15T21:02:03.397Z,7.42
2023-04-15T21:04:30.296Z,7.46
2023-04-15T21:06:57.099Z,7.46
2023-04-15T21:09:25.052Z,7.47
2023-04-15T21:14:21.600Z,7.46
2023-04-15T21:16:48.567Z,7.46
2023-04-15T21:19:15.329Z,7.46
2023-04-15T21:21:42.052Z,7.46
2023-04-15T21:24:08.973Z,7.51
2023-04-15T21:26:38.308Z,7.48
2023-04-15T21:29:05.509Z,7.50
2023-04-15T21:31:33.492Z,7.47
2023-04-15T21:34:00.207Z,7.54
2023-04-15T21:36:27.166Z,7.55
2023-04-15T21:38:53.898Z,7.50
2023-04-15T21:41:20.700Z,7.50
2023-04-15T21:43:47.528Z,7.50
2023-04-15T21:46:23.686Z,7.52
2023-04-15T21:48:53.418Z,7.55
2023-04-15T21:51:20.476Z,7.54
2023-04-15T21:53:47.318Z,7.56
2023-04-15T21:56:14.134Z,7.60
2023-04-15T21:58:41.056Z,7.58
2023-04-15T22:01:07.926Z,7.57
2023-04-15T22:03:35.487Z,7.61
2023-04-15T22:06:05.665Z,7.61
2023-04-15T22:08:38.677Z,7.60
2023-04-15T22:11:26.999Z,7.58
2023-04-15T22:13:54.689Z,7.60
2023-04-15T22:16:21.678Z,7.62
2023-04-15T22:18:48.578Z,7.63
2023-04-15T22:21:15.380Z,7.63
2023-04-15T22:23:42.449Z,7.66
2023-04-15T22:26:09.605Z,7.66
2023-04-15T22:28:36.426Z,7.68
2023-04-15T22:31:03.986Z,7.65
2023-04-15T22:33:30.853Z,7.66
2023-04-15T22:35:57.640Z,7.64
2023-04-15T22:38:24.992Z,7.64
2023-04-15T22:40:54.161Z,7.72
2023-04-15T22:43:21.094Z,7.68
2023-04-15T22:45:51.407Z,7.70
2023-04-15T22:48:19.094Z,7.71
2023-04-15T22:50:46.375Z,7.68
2023-04-15T22:53:13.281Z,7.72
2023-04-15T22:55:40.002Z,7.72
2023-04-15T22:58:06.800Z,7.70
2023-04-15T23:00:33.575Z,7.68
2023-04-15T23:03:00.621Z,7.67
2023-04-15T23:05:27.880Z,7.62
2023-04-15T23:07:54.928Z,7.66
2023-04-15T23:10:21.803Z,7.63
2023-04-15T23:12:48.768Z,7.67
2023-04-15T23:15:15.707Z,7.67
2023-04-15T23:17:42.865Z,7.64
2023-04-15T23:20:10.413Z,7.66
2023-04-15T23:22:37.981Z,7.72
2023-04-15T23:25:06.031Z,7.71
2023-04-15T23:27:32.955Z,7.71
2023-04-15T23:29:59.713Z,7.71
2023-04-15T23:32:27.522Z,7.70
2023-04-15T23:34:54.440Z,7.73
2023-04-15T23:37:21.367Z,7.74
2023-04-15T23:39:48.131Z,7.72
2023-04-15T23:42:14.961Z,7.76
2023-04-15T23:44:41.735Z,7.79
2023-04-15T23:47:08.499Z,7.78
2023-04-15T23:49:36.810Z,7.76
2023-04-15T23:52:03.969Z,7.81
2023-04-15T23:54:30.826Z,7.76
2023-04-15T23:56:57.629Z,7.77
2023-04-15T23:59:24.419Z,7.80
